sensor_id;sensor_type;location;lat;lon;timestamp;pressure;altitude;pressure_sealevel;temperature;humidity
6136;BME280;24008;42.664;23.372;2023-03-01T00:02:24;95233.91;;;5.34;100.00
6136;BME280;24008;42.664;23.372;2023-03-01T00:04:50;95231.38;;;5.34;100.00
6136;BME280;24008;42.664;23.372;2023-03-01T00:07:17;95230.28;;;5.38;100.00
6136;BME280;24008;42.664;23.372;2023-03-01T00:09:44;95233.00;;;5.35;100.00
6136;BME280;24008;42.664;23.372;2023-03-01T00:12:12;95187.84;;;5.15;100.00
6136;BME280;24008;42.664;23.372;2023-03-01T00:14:39;95131.56;;;4.70;100.00
6136;BME280;24008;42.664;23.372;2023-03-01T00:17:06;95170.34;;;4.97;100.00
6136;BME280;24008;42.664;23.372;2023-03-01T00:19:33;95225.72;;;5.30;100.00
6136;BME280;24008;42.664;23.372;2023-03-01T00:22:00;95219.72;;;5.31;100.00
6136;BME280;24008;42.664;23.372;2023-03-01T00:24:26;95211.41;;;5.29;100.00
6136;BME280;24008;42.664;23.372;2023-03-01T00:26:54;94836.19;;;3.00;100.00
6136;BME280;24008;42.664;23.372;2023-03-01T00:29:24;95200.97;;;5.34;100.00
6136;BME280;24008;42.664;23.372;2023-03-01T00:31:51;95195.19;;;5.32;100.00
6136;BME280;24008;42.664;23.372;2023-03-01T00:34:18;95201.56;;;5.25;100.00
6136;BME280;24008;42.664;23.372;2023-03-01T00:36:45;95144.88;;;4.86;100.00
6136;BME280;24008;42.664;23.372;2023-03-01T00:39:14;95182.47;;;5.06;100.00
6136;BME280;24008;42.664;23.372;2023-03-01T00:41:41;95191.38;;;5.12;100.00
6136;BME280;24008;42.664;23.372;2023-03-01T00:44:08;95191.28;;;5.14;100.00
6136;BME280;24008;42.664;23.372;2023-03-01T00:46:37;95181.34;;;5.11;100.00
6136;BME280;24008;42.664;23.372;2023-03-01T00:49:03;95116.66;;;4.65;100.00
6136;BME280;24008;42.664;23.372;2023-03-01T00:51:31;95194.00;;;5.11;100.00
6136;BME280;24008;42.664;23.372;2023-03-01T00:53:59;95173.78;;;4.96;100.00
6136;BME280;24008;42.664;23.372;2023-03-01T00:56:47;95140.59;;;4.74;100.00
6136;BME280;24008;42.664;23.372;2023-03-01T00:59:14;95178.22;;;5.07;100.00
6136;BME280;24008;42.664;23.372;2023-03-01T01:01:42;95187.53;;;5.06;100.00
6136;BME280;24008;42.664;23.372;2023-03-01T01:04:11;95185.81;;;5.07;100.00
6136;BME280;24008;42.664;23.372;2023-03-01T01:06:40;95179.94;;;5.06;100.00
6136;BME280;24008;42.664;23.372;2023-03-01T01:09:09;95185.00;;;5.06;100.00
6136;BME280;24008;42.664;23.372;2023-03-01T01:11:42;95080.72;;;4.33;100.00
6136;BME280;24008;42.664;23.372;2023-03-01T01:14:10;95195.00;;;5.08;100.00
6136;BME280;24008;42.664;23.372;2023-03-01T01:16:36;95192.59;;;5.06;100.00
6136;BME280;24008;42.664;23.372;2023-03-01T01:19:05;95169.13;;;4.90;100.00
6136;BME280;24008;42.664;23.372;2023-03-01T01:21:32;95160.28;;;4.83;100.00
6136;BME280;24008;42.664;23.372;2023-03-01T01:23:59;95192.78;;;5.03;100.00
6136;BME280;24008;42.664;23.372;2023-03-01T01:26:28;95180.84;;;5.05;100.00
6136;BME280;24008;42.664;23.372;2023-03-01T01:28:55;94978.03;;;3.76;100.00
6136;BME280;24008;42.664;23.372;2023-03-01T01:31:23;95187.91;;;5.00;100.00
6136;BME280;24008;42.664;23.372;2023-03-01T01:33:50;95184.47;;;5.01;100.00
6136;BME280;24008;42.664;23.372;2023-03-01T01:36:19;95087.38;;;4.34;100.00
6136;BME280;24008;42.664;23.372;2023-03-01T01:38:46;95168.59;;;4.85;100.00
6136;BME280;24008;42.664;23.372;2023-03-01T01:41:14;95209.41;;;5.07;100.00
6136;BME280;24008;42.664;23.372;2023-03-01T01:43:43;95170.41;;;4.83;100.00
6136;BME280;24008;42.664;23.372;2023-03-01T01:46:18;95196.03;;;5.05;100.00
6136;BME280;24008;42.664;23.372;2023-03-01T01:48:49;95185.94;;;4.91;100.00
6136;BME280;24008;42.664;23.372;2023-03-01T01:51:23;95201.09;;;5.05;100.00
6136;BME280;24008;42.664;23.372;2023-03-01T01:53:53;95197.84;;;5.03;100.00
6136;BME280;24008;42.664;23.372;2023-03-01T01:56:24;95105.75;;;4.51;100.00
6136;BME280;24008;42.664;23.372;2023-03-01T01:58:53;95153.75;;;4.93;100.00
6136;BME280;24008;42.664;23.372;2023-03-01T02:01:21;95063.00;;;4.33;100.00
6136;BME280;24008;42.664;23.372;2023-03-01T02:03:48;95181.25;;;5.12;100.00
6136;BME280;24008;42.664;23.372;2023-03-01T02:06:19;95155.97;;;4.98;100.00
6136;BME280;24008;42.664;23.372;2023-03-01T02:08:51;95077.91;;;4.51;100.00
6136;BME280;24008;42.664;23.372;2023-03-01T02:11:19;95143.63;;;4.93;100.00
6136;BME280;24008;42.664;23.372;2023-03-01T02:13:48;95175.56;;;5.08;100.00
6136;BME280;24008;42.664;23.372;2023-03-01T02:16:16;95170.50;;;5.08;100.00
6136;BME280;24008;42.664;23.372;2023-03-01T02:18:43;95163.78;;;5.07;100.00
6136;BME280;24008;42.664;23.372;2023-03-01T02:21:22;95180.44;;;5.12;100.00
6136;BME280;24008;42.664;23.372;2023-03-01T02:23:54;95048.09;;;4.29;100.00
6136;BME280;24008;42.664;23.372;2023-03-01T02:26:29;95180.34;;;5.13;100.00
6136;BME280;24008;42.664;23.372;2023-03-01T02:29:01;95179.72;;;5.10;100.00
6136;BME280;24008;42.664;23.372;2023-03-01T02:31:31;95185.81;;;5.07;100.00
6136;BME280;24008;42.664;23.372;2023-03-01T02:34:13;95106.09;;;4.59;100.00
6136;BME280;24008;42.664;23.372;2023-03-01T02:36:44;95192.97;;;5.00;100.00
6136;BME280;24008;42.664;23.372;2023-03-01T02:39:15;95182.84;;;5.00;100.00
6136;BME280;24008;42.664;23.372;2023-03-01T02:41:47;95192.16;;;5.00;100.00
6136;BME280;24008;42.664;23.372;2023-03-01T02:44:16;95193.16;;;4.97;100.00
6136;BME280;24008;42.664;23.372;2023-03-01T02:46:44;95164.91;;;4.77;100.00
6136;BME280;24008;42.664;23.372;2023-03-01T02:49:24;95177.94;;;4.97;100.00
6136;BME280;24008;42.664;23.372;2023-03-01T02:52:05;95175.63;;;4.94;100.00
6136;BME280;24008;42.664;23.372;2023-03-01T02:54:40;95153.78;;;4.79;100.00
6136;BME280;24008;42.664;23.372;2023-03-01T02:57:08;95172.06;;;4.97;100.00
6136;BME280;24008;42.664;23.372;2023-03-01T02:59:37;95174.69;;;4.95;100.00
6136;BME280;24008;42.664;23.372;2023-03-01T03:02:06;95174.00;;;4.93;100.00
6136;BME280;24008;42.664;23.372;2023-03-01T03:04:33;95130.13;;;4.66;100.00
6136;BME280;24008;42.664;23.372;2023-03-01T03:07:00;95070.13;;;4.27;100.00
6136;BME280;24008;42.664;23.372;2023-03-01T03:09:26;95165.16;;;4.86;100.00
6136;BME280;24008;42.664;23.372;2023-03-01T03:11:53;95177.09;;;4.84;100.00
6136;BME280;24008;42.664;23.372;2023-03-01T03:14:20;95081.47;;;4.21;100.00
6136;BME280;24008;42.664;23.372;2023-03-01T03:16:49;95141.53;;;4.59;100.00
6136;BME280;24008;42.664;23.372;2023-03-01T03:19:17;95175.47;;;4.83;100.00
6136;BME280;24008;42.664;23.372;2023-03-01T03:21:45;95175.69;;;4.80;100.00
6136;BME280;24008;42.664;23.372;2023-03-01T03:24:12;95172.25;;;4.81;100.00
6136;BME280;24008;42.664;23.372;2023-03-01T03:26:38;95078.28;;;4.18;100.00
6136;BME280;24008;42.664;23.372;2023-03-01T03:29:05;95186.72;;;4.79;100.00
6136;BME280;24008;42.664;23.372;2023-03-01T03:31:32;95180.00;;;4.78;100.00
6136;BME280;24008;42.664;23.372;2023-03-01T03:34:01;95192.84;;;4.75;100.00
6136;BME280;24008;42.664;23.372;2023-03-01T03:36:28;95153.50;;;4.57;100.00
6136;BME280;24008;42.664;23.372;2023-03-01T03:38:55;95190.50;;;4.72;100.00
6136;BME280;24008;42.664;23.372;2023-03-01T03:41:21;95182.91;;;4.72;100.00
6136;BME280;24008;42.664;23.372;2023-03-01T03:44:07;95193.44;;;4.66;100.00
6136;BME280;24008;42.664;23.372;2023-03-01T03:46:34;95192.72;;;4.64;100.00
6136;BME280;24008;42.664;23.372;2023-03-01T03:49:02;95153.53;;;4.43;100.00
6136;BME280;24008;42.664;23.372;2023-03-01T03:51:28;95162.34;;;4.50;100.00
6136;BME280;24008;42.664;23.372;2023-03-01T03:53:55;95157.84;;;4.41;100.00
6136;BME280;24008;42.664;23.372;2023-03-01T04:02:30;95153.88;;;4.37;100.00
6136;BME280;24008;42.664;23.372;2023-03-01T04:04:59;95198.16;;;4.58;100.00
6136;BME280;24008;42.664;23.372;2023-03-01T04:07:25;94937.09;;;2.87;100.00
6136;BME280;24008;42.664;23.372;2023-03-01T04:09:52;95179.63;;;4.57;100.00
6136;BME280;24008;42.664;23.372;2023-03-01T04:12:19;95168.41;;;4.47;100.00
6136;BME280;24008;42.664;23.372;2023-03-01T04:14:48;95151.72;;;4.30;100.00
6136;BME280;24008;42.664;23.372;2023-03-01T04:17:15;95180.63;;;4.55;100.00
6136;BME280;24008;42.664;23.372;2023-03-01T04:19:42;95202.56;;;4.68;100.00
6136;BME280;24008;42.664;23.372;2023-03-01T04:22:10;95203.38;;;4.69;100.00
6136;BME280;24008;42.664;23.372;2023-03-01T04:24:42;95174.75;;;4.54;100.00
6136;BME280;24008;42.664;23.372;2023-03-01T04:27:10;95179.16;;;4.51;100.00
6136;BME280;24008;42.664;23.372;2023-03-01T04:29:37;95199.13;;;4.69;100.00
6136;BME280;24008;42.664;23.372;2023-03-01T04:32:04;95175.09;;;4.48;100.00
6136;BME280;24008;42.664;23.372;2023-03-01T04:34:31;95194.34;;;4.65;100.00
6136;BME280;24008;42.664;23.372;2023-03-01T04:36:57;95141.28;;;4.22;100.00
6136;BME280;24008;42.664;23.372;2023-03-01T04:39:25;95182.56;;;4.64;100.00
6136;BME280;24008;42.664;23.372;2023-03-01T04:41:52;95204.56;;;4.63;100.00
6136;BME280;24008;42.664;23.372;2023-03-01T04:44:19;95159.09;;;4.48;100.00
6136;BME280;24008;42.664;23.372;2023-03-01T04:46:48;95108.66;;;4.18;100.00
6136;BME280;24008;42.664;23.372;2023-03-01T04:49:15;95195.88;;;4.67;100.00
6136;BME280;24008;42.664;23.372;2023-03-01T04:51:42;95160.03;;;4.47;100.00
6136;BME280;24008;42.664;23.372;2023-03-01T04:54:09;95154.44;;;4.42;100.00
6136;BME280;24008;42.664;23.372;2023-03-01T04:56:37;95178.19;;;4.53;100.00
6136;BME280;24008;42.664;23.372;2023-03-01T04:59:04;95182.34;;;4.54;100.00
6136;BME280;24008;42.664;23.372;2023-03-01T05:01:31;95179.16;;;4.51;100.00
6136;BME280;24008;42.664;23.372;2023-03-01T05:03:58;95189.13;;;4.54;100.00
6136;BME280;24008;42.664;23.372;2023-03-01T05:06:28;95173.22;;;4.38;100.00
6136;BME280;24008;42.664;23.372;2023-03-01T05:08:55;95187.47;;;4.53;100.00
6136;BME280;24008;42.664;23.372;2023-03-01T05:11:22;95185.59;;;4.56;100.00
6136;BME280;24008;42.664;23.372;2023-03-01T05:13:50;95162.91;;;4.41;100.00
6136;BME280;24008;42.664;23.372;2023-03-01T05:16:20;95125.53;;;4.17;100.00
6136;BME280;24008;42.664;23.372;2023-03-01T05:18:46;95027.09;;;3.59;100.00
6136;BME280;24008;42.664;23.372;2023-03-01T05:21:16;95199.41;;;4.65;100.00
6136;BME280;24008;42.664;23.372;2023-03-01T05:23:43;95203.38;;;4.69;100.00
6136;BME280;24008;42.664;23.372;2023-03-01T05:26:10;95159.31;;;4.45;100.00
6136;BME280;24008;42.664;23.372;2023-03-01T05:28:38;95192.44;;;4.68;100.00
6136;BME280;24008;42.664;23.372;2023-03-01T05:31:06;95195.38;;;4.75;100.00
6136;BME280;24008;42.664;23.372;2023-03-01T05:33:35;95197.56;;;4.81;100.00
6136;BME280;24008;42.664;23.372;2023-03-01T05:36:03;95185.59;;;4.83;100.00
6136;BME280;24008;42.664;23.372;2023-03-01T05:38:29;95184.69;;;4.84;100.00
6136;BME280;24008;42.664;23.372;2023-03-01T05:40:56;95193.31;;;4.82;100.00
6136;BME280;24008;42.664;23.372;2023-03-01T05:43:23;95197.16;;;4.87;100.00
6136;BME280;24008;42.664;23.372;2023-03-01T05:45:50;95198.97;;;4.85;100.00
6136;BME280;24008;42.664;23.372;2023-03-01T05:48:18;95202.41;;;4.84;100.00
6136;BME280;24008;42.664;23.372;2023-03-01T05:50:46;95176.44;;;4.68;100.00
6136;BME280;24008;42.664;23.372;2023-03-01T05:53:14;95207.28;;;4.87;100.00
6136;BME280;24008;42.664;23.372;2023-03-01T05:55:42;95206.66;;;4.84;100.00
6136;BME280;24008;42.664;23.372;2023-03-01T05:58:13;95221.97;;;4.82;100.00
6136;BME280;24008;42.664;23.372;2023-03-01T06:00:41;95175.66;;;4.53;100.00
6136;BME280;24008;42.664;23.372;2023-03-01T06:03:10;95184.94;;;4.53;100.00
6136;BME280;24008;42.664;23.372;2023-03-01T06:05:38;95214.31;;;4.69;100.00
6136;BME280;24008;42.664;23.372;2023-03-01T06:08:05;95225.63;;;4.64;100.00
6136;BME280;24008;42.664;23.372;2023-03-01T06:10:32;95220.94;;;4.58;100.00
6136;BME280;24008;42.664;23.372;2023-03-01T06:12:59;95223.31;;;4.47;100.00
6136;BME280;24008;42.664;23.372;2023-03-01T06:15:26;95213.53;;;4.41;100.00
6136;BME280;24008;42.664;23.372;2023-03-01T06:17:54;95077.81;;;3.56;100.00
6136;BME280;24008;42.664;23.372;2023-03-01T06:20:24;95188.41;;;4.23;100.00
6136;BME280;24008;42.664;23.372;2023-03-01T06:22:53;95236.22;;;4.56;100.00
6136;BME280;24008;42.664;23.372;2023-03-01T06:25:23;95207.22;;;4.33;100.00
6136;BME280;24008;42.664;23.372;2023-03-01T06:27:50;95239.75;;;4.54;100.00
6136;BME280;24008;42.664;23.372;2023-03-01T06:30:18;95214.63;;;4.37;100.00
6136;BME280;24008;42.664;23.372;2023-03-01T06:32:45;95239.47;;;4.58;100.00
6136;BME280;24008;42.664;23.372;2023-03-01T06:35:14;95162.78;;;4.15;100.00
6136;BME280;24008;42.664;23.372;2023-03-01T06:37:44;95233.94;;;4.66;100.00
6136;BME280;24008;42.664;23.372;2023-03-01T06:40:13;95174.41;;;4.32;100.00
6136;BME280;24008;42.664;23.372;2023-03-01T06:42:42;95222.38;;;4.62;100.00
6136;BME280;24008;42.664;23.372;2023-03-01T06:45:10;95242.69;;;4.75;100.00
6136;BME280;24008;42.664;23.372;2023-03-01T06:47:37;95118.63;;;3.92;100.00
6136;BME280;24008;42.664;23.372;2023-03-01T06:50:05;95238.44;;;4.75;100.00
6136;BME280;24008;42.664;23.372;2023-03-01T06:52:31;95231.03;;;4.72;100.00
6136;BME280;24008;42.664;23.372;2023-03-01T06:54:58;95231.91;;;4.71;100.00
6136;BME280;24008;42.664;23.372;2023-03-01T06:57:27;95185.72;;;4.26;100.00
6136;BME280;24008;42.664;23.372;2023-03-01T06:59:54;95248.13;;;4.68;100.00
6136;BME280;24008;42.664;23.372;2023-03-01T07:02:21;95240.44;;;4.70;100.00
6136;BME280;24008;42.664;23.372;2023-03-01T07:04:49;95239.53;;;4.71;100.00
6136;BME280;24008;42.664;23.372;2023-03-01T07:07:16;95214.59;;;4.51;100.00
6136;BME280;24008;42.664;23.372;2023-03-01T07:09:43;95172.78;;;4.31;100.00
6136;BME280;24008;42.664;23.372;2023-03-01T07:12:10;95186.41;;;4.43;100.00
6136;BME280;24008;42.664;23.372;2023-03-01T07:14:38;95239.25;;;4.76;100.00
6136;BME280;24008;42.664;23.372;2023-03-01T07:17:05;95234.66;;;4.82;100.00
6136;BME280;24008;42.664;23.372;2023-03-01T07:19:32;95232.63;;;4.87;100.00
6136;BME280;24008;42.664;23.372;2023-03-01T07:21:58;95244.03;;;4.94;100.00
6136;BME280;24008;42.664;23.372;2023-03-01T07:24:25;95167.00;;;4.43;100.00
6136;BME280;24008;42.664;23.372;2023-03-01T07:26:52;95234.88;;;4.92;100.00
6136;BME280;24008;42.664;23.372;2023-03-01T07:29:19;95249.09;;;4.94;100.00
6136;BME280;24008;42.664;23.372;2023-03-01T07:31:48;95222.63;;;4.98;100.00
6136;BME280;24008;42.664;23.372;2023-03-01T07:34:14;95220.75;;;5.02;100.00
6136;BME280;24008;42.664;23.372;2023-03-01T07:36:41;95228.25;;;5.03;100.00
6136;BME280;24008;42.664;23.372;2023-03-01T07:39:09;95227.03;;;5.09;100.00
6136;BME280;24008;42.664;23.372;2023-03-01T07:41:36;95234.53;;;5.11;100.00
6136;BME280;24008;42.664;23.372;2023-03-01T07:44:03;95224.94;;;5.16;100.00
6136;BME280;24008;42.664;23.372;2023-03-01T07:46:30;95172.47;;;4.91;100.00
6136;BME280;24008;42.664;23.372;2023-03-01T07:48:58;95228.97;;;5.45;99.64
6136;BME280;24008;42.664;23.372;2023-03-01T07:51:25;95223.34;;;5.54;97.15
6136;BME280;24008;42.664;23.372;2023-03-01T07:53:52;95184.75;;;5.36;96.58
6136;BME280;24008;42.664;23.372;2023-03-01T07:56:19;95210.97;;;5.62;96.11
6136;BME280;24008;42.664;23.372;2023-03-01T07:58:47;95113.66;;;5.13;95.78
6136;BME280;24008;42.664;23.372;2023-03-01T08:01:17;95211.91;;;5.87;95.38
6136;BME280;24008;42.664;23.372;2023-03-01T08:03:44;95205.25;;;5.98;93.44
6136;BME280;24008;42.664;23.372;2023-03-01T08:06:13;95157.13;;;5.71;92.92
6136;BME280;24008;42.664;23.372;2023-03-01T08:08:40;95178.53;;;5.93;91.97
6136;BME280;24008;42.664;23.372;2023-03-01T08:11:10;95186.28;;;5.91;90.58
6136;BME280;24008;42.664;23.372;2023-03-01T08:13:37;95071.78;;;5.20;90.66
6136;BME280;24008;42.664;23.372;2023-03-01T08:16:06;95218.47;;;5.91;91.79
6136;BME280;24008;42.664;23.372;2023-03-01T08:18:34;95197.00;;;5.82;92.18
6136;BME280;24008;42.664;23.372;2023-03-01T08:21:02;95089.53;;;5.20;92.52
6136;BME280;24008;42.664;23.372;2023-03-01T08:23:31;95205.53;;;5.94;92.56
6136;BME280;24008;42.664;23.372;2023-03-01T08:26:06;95202.41;;;6.03;92.57
6136;BME280;24008;42.664;23.372;2023-03-01T08:28:33;95111.16;;;5.63;91.96
6136;BME280;24008;42.664;23.372;2023-03-01T08:31:01;95202.50;;;6.27;91.11
6136;BME280;24008;42.664;23.372;2023-03-01T08:33:28;95203.72;;;6.21;88.19
6136;BME280;24008;42.664;23.372;2023-03-01T08:36:02;95203.00;;;6.19;87.52
6136;BME280;24008;42.664;23.372;2023-03-01T08:38:32;95202.81;;;6.09;87.15
6136;BME280;24008;42.664;23.372;2023-03-01T08:41:00;95203.63;;;6.10;87.36
6136;BME280;24008;42.664;23.372;2023-03-01T08:43:27;95206.16;;;6.10;86.57
6136;BME280;24008;42.664;23.372;2023-03-01T08:45:54;95217.03;;;6.12;87.06
6136;BME280;24008;42.664;23.372;2023-03-01T08:48:20;95210.41;;;6.22;86.80
6136;BME280;24008;42.664;23.372;2023-03-01T08:50:47;95200.06;;;6.25;84.91
6136;BME280;24008;42.664;23.372;2023-03-01T08:53:14;95169.63;;;6.00;84.46
6136;BME280;24008;42.664;23.372;2023-03-01T08:55:42;95224.84;;;6.09;85.60
6136;BME280;24008;42.664;23.372;2023-03-01T08:58:09;95099.00;;;5.30;86.16
6136;BME280;24008;42.664;23.372;2023-03-01T09:00:36;95085.00;;;5.25;86.08
6136;BME280;24008;42.664;23.372;2023-03-01T09:03:03;95220.97;;;6.16;86.03
6136;BME280;24008;42.664;23.372;2023-03-01T09:05:31;95183.53;;;6.07;85.42
6136;BME280;24008;42.664;23.372;2023-03-01T09:07:58;95182.72;;;5.94;85.31
6136;BME280;24008;42.664;23.372;2023-03-01T09:10:25;95175.91;;;6.07;85.35
6136;BME280;24008;42.664;23.372;2023-03-01T09:12:53;95181.59;;;5.98;85.56
6136;BME280;24008;42.664;23.372;2023-03-01T09:15:20;95204.34;;;6.25;85.63
6136;BME280;24008;42.664;23.372;2023-03-01T09:17:48;95049.50;;;5.25;85.40
6136;BME280;24008;42.664;23.372;2023-03-01T09:20:16;95143.25;;;5.90;84.94
6136;BME280;24008;42.664;23.372;2023-03-01T09:22:42;95201.34;;;6.43;85.15
6136;BME280;24008;42.664;23.372;2023-03-01T09:25:09;95157.63;;;6.27;84.19
6136;BME280;24008;42.664;23.372;2023-03-01T09:27:36;95196.34;;;6.55;83.09
6136;BME280;24008;42.664;23.372;2023-03-01T09:30:05;95187.63;;;6.59;83.70
6136;BME280;24008;42.664;23.372;2023-03-01T09:32:32;94967.31;;;5.03;82.71
6136;BME280;24008;42.664;23.372;2023-03-01T09:34:59;95190.63;;;6.40;82.88
6136;BME280;24008;42.664;23.372;2023-03-01T09:37:31;95199.66;;;6.31;84.58
6136;BME280;24008;42.664;23.372;2023-03-01T09:39:58;95194.19;;;6.25;85.14
6136;BME280;24008;42.664;23.372;2023-03-01T09:42:26;95195.81;;;6.26;85.72
6136;BME280;24008;42.664;23.372;2023-03-01T09:44:57;95181.97;;;6.30;85.59
6136;BME280;24008;42.664;23.372;2023-03-01T09:47:28;95174.19;;;6.07;85.81
6136;BME280;24008;42.664;23.372;2023-03-01T09:50:01;95181.38;;;6.26;86.17
6136;BME280;24008;42.664;23.372;2023-03-01T09:52:34;95192.34;;;6.27;85.67
6136;BME280;24008;42.664;23.372;2023-03-01T09:55:11;95178.63;;;6.29;86.38
6136;BME280;24008;42.664;23.372;2023-03-01T09:57:45;95153.38;;;6.15;85.54
6136;BME280;24008;42.664;23.372;2023-03-01T10:00:28;95164.91;;;6.32;85.09
6136;BME280;24008;42.664;23.372;2023-03-01T10:03:02;95143.25;;;6.15;84.50
6136;BME280;24008;42.664;23.372;2023-03-01T10:05:41;95164.19;;;6.30;85.75
6136;BME280;24008;42.664;23.372;2023-03-01T10:08:29;95176.59;;;6.34;86.38
6136;BME280;24008;42.664;23.372;2023-03-01T10:11:01;95154.63;;;6.46;86.42
6136;BME280;24008;42.664;23.372;2023-03-01T10:13:45;95138.41;;;6.36;84.64
6136;BME280;24008;42.664;23.372;2023-03-01T10:16:17;95169.84;;;6.59;84.76
6136;BME280;24008;42.664;23.372;2023-03-01T10:18:51;95161.31;;;6.60;84.34
6136;BME280;24008;42.664;23.372;2023-03-01T10:21:20;95122.84;;;6.40;83.81
6136;BME280;24008;42.664;23.372;2023-03-01T10:23:50;95184.13;;;6.72;83.84
6136;BME280;24008;42.664;23.372;2023-03-01T10:26:27;95120.41;;;6.52;84.00
6136;BME280;24008;42.664;23.372;2023-03-01T10:29:02;95147.09;;;6.81;83.81
6136;BME280;24008;42.664;23.372;2023-03-01T10:31:38;95111.84;;;6.53;82.67
6136;BME280;24008;42.664;23.372;2023-03-01T10:34:16;95127.22;;;6.75;82.50
6136;BME280;24008;42.664;23.372;2023-03-01T10:36:44;95146.03;;;6.96;82.45
6136;BME280;24008;42.664;23.372;2023-03-01T10:39:14;95142.50;;;7.10;81.20
6136;BME280;24008;42.664;23.372;2023-03-01T10:41:55;95133.91;;;7.23;80.37
6136;BME280;24008;42.664;23.372;2023-03-01T10:44:40;94847.25;;;5.66;79.31
6136;BME280;24008;42.664;23.372;2023-03-01T10:47:14;95090.91;;;7.32;78.92
6136;BME280;24008;42.664;23.372;2023-03-01T10:49:56;95014.75;;;6.73;78.19
6136;BME280;24008;42.664;23.372;2023-03-01T10:52:25;95128.03;;;7.34;78.45
6136;BME280;24008;42.664;23.372;2023-03-01T10:54:55;95132.03;;;7.26;79.33
6136;BME280;24008;42.664;23.372;2023-03-01T10:57:34;95070.13;;;6.92;79.51
6136;BME280;24008;42.664;23.372;2023-03-01T11:00:33;95106.81;;;7.11;79.59
6136;BME280;24008;42.664;23.372;2023-03-01T11:03:10;95132.53;;;7.31;79.41
6136;BME280;24008;42.664;23.372;2023-03-01T11:05:54;95057.72;;;7.11;79.16
6136;BME280;24008;42.664;23.372;2023-03-01T11:08:39;95075.78;;;7.41;78.34
6136;BME280;24008;42.664;23.372;2023-03-01T11:11:14;95008.81;;;6.96;77.89
6136;BME280;24008;42.664;23.372;2023-03-01T11:13:55;95059.47;;;7.21;77.79
6136;BME280;24008;42.664;23.372;2023-03-01T11:16:34;95098.56;;;7.43;77.73
6136;BME280;24008;42.664;23.372;2023-03-01T11:19:16;95053.69;;;7.31;77.64
6136;BME280;24008;42.664;23.372;2023-03-01T11:21:52;95094.66;;;7.61;76.74
6136;BME280;24008;42.664;23.372;2023-03-01T11:24:23;95127.63;;;7.74;75.99
6136;BME280;24008;42.664;23.372;2023-03-01T11:26:54;95058.19;;;7.27;76.65
6136;BME280;24008;42.664;23.372;2023-03-01T11:29:27;95129.69;;;7.57;77.02
6136;BME280;24008;42.664;23.372;2023-03-01T11:31:59;95121.69;;;7.51;77.89
6136;BME280;24008;42.664;23.372;2023-03-01T11:34:35;95111.72;;;7.37;78.18
6136;BME280;24008;42.664;23.372;2023-03-01T11:37:18;95082.31;;;7.10;79.78
6136;BME280;24008;42.664;23.372;2023-03-01T11:39:56;95118.91;;;7.43;78.78
6136;BME280;24008;42.664;23.372;2023-03-01T11:42:33;95027.94;;;6.89;79.15
6136;BME280;24008;42.664;23.372;2023-03-01T11:45:08;95107.72;;;7.45;79.55
6136;BME280;24008;42.664;23.372;2023-03-01T11:47:55;95097.78;;;7.53;79.79
6136;BME280;24008;42.664;23.372;2023-03-01T11:50:29;95075.34;;;7.36;79.22
6136;BME280;24008;42.664;23.372;2023-03-01T11:53:22;95092.91;;;7.50;78.92
6136;BME280;24008;42.664;23.372;2023-03-01T11:55:58;95084.00;;;7.45;79.23
6136;BME280;24008;42.664;23.372;2023-03-01T11:58:45;95046.75;;;7.21;78.42
6136;BME280;24008;42.664;23.372;2023-03-01T12:01:24;94993.66;;;6.83;79.12
6136;BME280;24008;42.664;23.372;2023-03-01T12:04:05;95064.81;;;7.41;79.35
6136;BME280;24008;42.664;23.372;2023-03-01T12:06:47;95053.38;;;7.46;78.87
6136;BME280;24008;42.664;23.372;2023-03-01T12:09:33;95081.72;;;7.86;77.42
6136;BME280;24008;42.664;23.372;2023-03-01T12:12:24;95045.63;;;7.92;76.98
6136;BME280;24008;42.664;23.372;2023-03-01T12:15:03;95044.47;;;8.19;75.96
6136;BME280;24008;42.664;23.372;2023-03-01T12:20:35;95059.84;;;8.17;74.52
6136;BME280;24008;42.664;23.372;2023-03-01T12:23:20;95076.38;;;8.12;75.27
6136;BME280;24008;42.664;23.372;2023-03-01T12:25:56;95040.34;;;7.84;75.92
6136;BME280;24008;42.664;23.372;2023-03-01T12:28:38;95048.41;;;7.78;77.08
6136;BME280;24008;42.664;23.372;2023-03-01T12:31:33;95071.91;;;7.93;76.62
6136;BME280;24008;42.664;23.372;2023-03-01T12:34:12;95058.00;;;7.75;76.88
6136;BME280;24008;42.664;23.372;2023-03-01T12:37:03;95076.19;;;7.70;78.58
6136;BME280;24008;42.664;23.372;2023-03-01T12:40:03;95003.97;;;7.15;78.61
6136;BME280;24008;42.664;23.372;2023-03-01T12:42:43;95059.63;;;7.53;79.26
6136;BME280;24008;42.664;23.372;2023-03-01T12:45:34;95064.00;;;7.63;78.97
6136;BME280;24008;42.664;23.372;2023-03-01T12:48:22;95023.91;;;7.44;78.70
6136;BME280;24008;42.664;23.372;2023-03-01T12:50:52;95041.22;;;7.39;79.22
6136;BME280;24008;42.664;23.372;2023-03-01T12:53:23;95043.31;;;7.45;79.57
6136;BME280;24008;42.664;23.372;2023-03-01T12:55:52;95034.88;;;7.55;78.80
6136;BME280;24008;42.664;23.372;2023-03-01T12:58:25;95021.13;;;7.58;79.01
6136;BME280;24008;42.664;23.372;2023-03-01T13:01:03;95023.19;;;7.64;78.14
6136;BME280;24008;42.664;23.372;2023-03-01T13:03:51;95067.41;;;7.97;77.25
6136;BME280;24008;42.664;23.372;2023-03-01T13:06:27;95053.16;;;7.94;77.15
6136;BME280;24008;42.664;23.372;2023-03-01T13:09:02;94989.59;;;7.61;77.54
6136;BME280;24008;42.664;23.372;2023-03-01T13:11:32;94947.50;;;7.34;76.60
6136;BME280;24008;42.664;23.372;2023-03-01T13:17:01;95068.31;;;8.07;77.30
6136;BME280;24008;42.664;23.372;2023-03-01T13:19:28;95060.00;;;7.93;77.84
6136;BME280;24008;42.664;23.372;2023-03-01T13:21:58;95054.66;;;7.97;78.34
6136;BME280;24008;42.664;23.372;2023-03-01T13:24:27;95056.25;;;7.97;77.97
6136;BME280;24008;42.664;23.372;2023-03-01T13:27:11;95012.47;;;7.61;78.03
6136;BME280;24008;42.664;23.372;2023-03-01T13:29:51;95053.16;;;7.94;77.79
6136;BME280;24008;42.664;23.372;2023-03-01T13:32:21;95056.97;;;8.00;77.57
6136;BME280;24008;42.664;23.372;2023-03-01T13:34:57;95051.06;;;7.99;76.16
6136;BME280;24008;42.664;23.372;2023-03-01T13:37:33;95029.00;;;7.66;76.99